createdAt,value
2019-03-27T00:01:05.284Z,101277.55
2019-03-27T00:04:02.294Z,101276.91
2019-03-27T00:07:00.098Z,101273.38
2019-03-27T00:09:57.741Z,101276.34
2019-03-27T00:12:54.711Z,101280.09
2019-03-27T00:15:52.241Z,101279.77
2019-03-27T00:18:49.114Z,101278.17
2019-03-27T00:21:46.038Z,101275.09
2019-03-27T00:24:46.523Z,101272.18
2019-03-27T00:27:44.482Z,101273.13
2019-03-27T00:30:41.000Z,101277.73
2019-03-27T00:33:38.378Z,101276.22
2019-03-27T00:36:35.426Z,101277.07
2019-03-27T00:39:32.461Z,101271.31
2019-03-27T00:42:29.600Z,101272.50
2019-03-27T00:45:27.196Z,101279.55
2019-03-27T00:48:24.530Z,101288.60
2019-03-27T00:51:21.761Z,101287.33
2019-03-27T00:54:18.351Z,101285.29
2019-03-27T00:57:16.249Z,101288.64
2019-03-27T01:00:24.221Z,101284.98
2019-03-27T01:03:22.064Z,101285.95
2019-03-27T01:06:20.639Z,101283.28
2019-03-27T01:09:18.217Z,101291.66
2019-03-27T01:12:16.280Z,101286.58
2019-03-27T01:15:14.090Z,101282.95
2019-03-27T01:18:16.010Z,101288.64
2019-03-27T01:21:13.731Z,101288.08
2019-03-27T01:24:10.791Z,101280.97
2019-03-27T01:27:07.765Z,101291.98
2019-03-27T01:30:06.111Z,101293.46
2019-03-27T01:33:02.931Z,101300.77
2019-03-27T01:35:59.662Z,101295.03
2019-03-27T01:38:56.407Z,101299.50
2019-03-27T01:41:53.861Z,101299.84
2019-03-27T01:44:57.715Z,101298.77
2019-03-27T01:47:55.075Z,101299.59
2019-03-27T01:50:53.799Z,101297.64
2019-03-27T01:53:50.735Z,101300.48
2019-03-27T01:56:48.501Z,101303.23
2019-03-27T01:59:45.412Z,101306.30
2019-03-27T02:02:42.723Z,101304.03
2019-03-27T02:05:39.478Z,101313.88
2019-03-27T02:08:36.322Z,101304.92
2019-03-27T02:11:33.906Z,101311.09
2019-03-27T02:14:32.087Z,101310.50
2019-03-27T02:17:29.188Z,101320.99
2019-03-27T02:20:26.602Z,101321.16
2019-03-27T02:23:23.316Z,101319.62
2019-03-27T02:26:20.989Z,101323.97
2019-03-27T02:29:18.375Z,101321.84
2019-03-27T02:32:20.258Z,101316.42
2019-03-27T02:35:16.606Z,101319.00
2019-03-27T02:38:13.594Z,101317.80
2019-03-27T02:41:10.677Z,101326.17
2019-03-27T02:44:08.079Z,101327.53
2019-03-27T02:47:04.880Z,101334.64
2019-03-27T02:50:02.310Z,101326.12
2019-03-27T02:52:59.778Z,101333.60
2019-03-27T02:55:57.597Z,101338.61
2019-03-27T02:58:55.144Z,101338.62
2019-03-27T03:01:51.863Z,101344.23
2019-03-27T03:04:49.517Z,101346.78
2019-03-27T03:07:46.980Z,101346.25
2019-03-27T03:10:45.860Z,101350.80
2019-03-27T03:13:43.697Z,101354.12
2019-03-27T03:16:42.806Z,101348.13
2019-03-27T03:19:38.863Z,101354.58
2019-03-27T03:22:36.321Z,101356.15
2019-03-27T03:25:33.812Z,101352.17
2019-03-27T03:28:33.362Z,101353.13
2019-03-27T03:31:29.899Z,101350.69
2019-03-27T03:34:26.616Z,101346.01
2019-03-27T03:37:23.970Z,101349.59
2019-03-27T03:40:20.977Z,101345.19
2019-03-27T03:43:18.007Z,101341.20
2019-03-27T03:46:16.650Z,101344.52
2019-03-27T03:49:13.292Z,101346.76
2019-03-27T03:52:10.766Z,101353.35
2019-03-27T03:55:08.347Z,101359.77
2019-03-27T03:58:06.269Z,101359.35
2019-03-27T04:01:04.163Z,101359.78
2019-03-27T04:04:04.414Z,101368.09
2019-03-27T04:07:01.354Z,101361.97
2019-03-27T04:09:58.356Z,101362.44
2019-03-27T04:12:55.989Z,101359.55
2019-03-27T04:15:53.342Z,101355.14
2019-03-27T04:18:51.295Z,101351.07
2019-03-27T04:21:48.217Z,101357.38
2019-03-27T04:24:45.236Z,101360.98
2019-03-27T04:27:43.676Z,101357.97
2019-03-27T04:30:41.800Z,101368.77
2019-03-27T04:33:39.587Z,101365.83
2019-03-27T04:36:36.589Z,101368.52
2019-03-27T04:39:33.765Z,101367.64
2019-03-27T04:42:31.993Z,101373.01
2019-03-27T04:45:29.127Z,101379.13
2019-03-27T04:48:26.797Z,101375.42
2019-03-27T04:51:24.234Z,101377.89
2019-03-27T04:54:21.712Z,101387.19
2019-03-27T04:57:20.776Z,101392.94
2019-03-27T05:00:23.544Z,101394.49
2019-03-27T05:03:21.270Z,101397.48
2019-03-27T05:06:18.578Z,101397.03
2019-03-27T05:09:15.439Z,101401.72
2019-03-27T05:12:13.677Z,101406.47
2019-03-27T05:15:12.650Z,101416.98
2019-03-27T05:18:12.284Z,101416.17
2019-03-27T05:21:10.039Z,101417.52
2019-03-27T05:24:07.525Z,101416.39
2019-03-27T05:27:05.226Z,101426.68
2019-03-27T05:30:02.845Z,101432.32
2019-03-27T05:33:01.409Z,101439.17
2019-03-27T05:35:58.323Z,101436.80
2019-03-27T05:38:54.925Z,101447.22
2019-03-27T05:41:52.532Z,101450.27
2019-03-27T05:44:49.334Z,101454.69
2019-03-27T05:47:58.917Z,101456.10
2019-03-27T05:50:44.564Z,101451.11
2019-03-27T05:53:42.377Z,101459.42
2019-03-27T05:56:38.933Z,101455.46
2019-03-27T05:59:36.606Z,101460.03
2019-03-27T06:02:41.329Z,101462.84
2019-03-27T06:05:38.312Z,101457.70
2019-03-27T06:08:36.204Z,101461.56
2019-03-27T06:11:33.445Z,101456.50
2019-03-27T06:14:31.209Z,101465.52
2019-03-27T06:17:28.669Z,101468.35
2019-03-27T06:20:26.081Z,101463.41
2019-03-27T06:23:23.178Z,101467.44
2019-03-27T06:26:20.601Z,101460.91
2019-03-27T06:29:19.247Z,101469.39
2019-03-27T06:32:16.982Z,101474.13
2019-03-27T06:35:14.271Z,101468.92
2019-03-27T06:38:11.733Z,101474.72
2019-03-27T06:41:09.470Z,101475.46
2019-03-27T06:44:07.202Z,101482.22
2019-03-27T06:47:04.808Z,101483.86
2019-03-27T06:50:02.263Z,101486.50
2019-03-27T06:53:01.087Z,101492.81
2019-03-27T06:55:58.822Z,101500.80
2019-03-27T06:58:56.404Z,101501.19
2019-03-27T07:01:53.928Z,101499.73
2019-03-27T07:04:51.871Z,101492.33
2019-03-27T07:07:48.290Z,101492.45
2019-03-27T07:10:44.860Z,101491.30
2019-03-27T07:13:55.263Z,101498.37
2019-03-27T07:16:52.706Z,101504.41
2019-03-27T07:19:49.686Z,101506.99
2019-03-27T07:22:47.061Z,101509.39
2019-03-27T07:25:45.073Z,101506.58
2019-03-27T07:28:42.739Z,101513.25
2019-03-27T07:31:48.052Z,101521.31
2019-03-27T07:34:44.828Z,101520.19
2019-03-27T07:37:42.272Z,101528.33
2019-03-27T07:40:39.480Z,101536.69
2019-03-27T07:43:37.078Z,101538.41
2019-03-27T07:46:34.725Z,101540.62
2019-03-27T07:49:31.239Z,101538.05
2019-03-27T07:52:28.757Z,101543.13
2019-03-27T07:55:25.580Z,101548.23
2019-03-27T07:58:22.036Z,101546.23
2019-03-27T08:01:19.743Z,101553.55
2019-03-27T08:04:17.236Z,101546.58
2019-03-27T08:07:26.124Z,101547.50
2019-03-27T08:10:13.867Z,101539.80
2019-03-27T08:13:10.460Z,101534.68
2019-03-27T08:16:08.733Z,101532.14
2019-03-27T08:19:07.900Z,101535.17
2019-03-27T08:22:07.605Z,101534.59
2019-03-27T08:25:05.328Z,101533.47
2019-03-27T08:28:03.077Z,101534.44
2019-03-27T08:31:01.621Z,101537.31
2019-03-27T08:33:58.162Z,101532.86
2019-03-27T08:36:55.518Z,101538.28
2019-03-27T08:39:53.392Z,101536.66
2019-03-27T08:42:50.053Z,101537.27
2019-03-27T08:45:46.828Z,101537.73
2019-03-27T08:48:44.586Z,101544.22
2019-03-27T08:51:41.558Z,101535.36
2019-03-27T08:54:38.505Z,101537.45
2019-03-27T08:57:36.050Z,101538.16
2019-03-27T09:00:53.601Z,101539.94
2019-03-27T09:03:50.312Z,101542.28
2019-03-27T09:06:47.994Z,101540.28
2019-03-27T09:09:45.596Z,101534.52
2019-03-27T09:12:42.852Z,95745.45
2019-03-27T09:15:40.125Z,101532.93
2019-03-27T09:18:37.064Z,101534.11
2019-03-27T09:21:34.528Z,101535.53
2019-03-27T09:24:34.747Z,101538.50
2019-03-27T09:27:32.201Z,101535.66
2019-03-27T09:30:31.421Z,101542.75
2019-03-27T09:33:29.180Z,101543.70
2019-03-27T09:36:26.004Z,101545.91
2019-03-27T09:39:23.667Z,101543.20
2019-03-27T09:42:20.247Z,101538.30
2019-03-27T09:45:17.605Z,101546.01
2019-03-27T09:48:16.682Z,101546.64
2019-03-27T09:51:15.394Z,101550.77
2019-03-27T09:54:12.770Z,101554.68
2019-03-27T09:57:10.071Z,101557.95
2019-03-27T10:00:09.998Z,101551.30
2019-03-27T10:03:07.870Z,101560.26
2019-03-27T10:06:04.974Z,101566.70
2019-03-27T10:09:02.059Z,101569.21
2019-03-27T10:12:01.165Z,101564.87
2019-03-27T10:14:58.928Z,101557.42
2019-03-27T10:17:55.799Z,101552.08
2019-03-27T10:20:53.241Z,101557.41
2019-03-27T10:23:50.592Z,101547.92
2019-03-27T10:26:47.185Z,101559.85
2019-03-27T10:29:43.656Z,101551.47
2019-03-27T10:32:40.749Z,106156.93
2019-03-27T10:35:38.251Z,106156.93
2019-03-27T10:38:35.731Z,106156.93
2019-03-27T10:41:33.414Z,106156.93
2019-03-27T10:44:29.340Z,106156.93
2019-03-27T10:47:26.429Z,106156.93
2019-03-27T10:50:23.072Z,106156.93
2019-03-27T10:53:20.155Z,106156.93
2019-03-27T10:56:16.536Z,101535.05
2019-03-27T10:59:13.025Z,106156.93
2019-03-27T11:02:09.392Z,106156.93
2019-03-27T11:05:07.110Z,101550.24
2019-03-27T11:08:03.858Z,101560.62
2019-03-27T11:11:04.798Z,101554.80
2019-03-27T11:14:01.544Z,101558.94
2019-03-27T11:16:59.660Z,101550.45
2019-03-27T11:19:56.711Z,101551.30
2019-03-27T11:22:54.448Z,101555.53
2019-03-27T11:25:51.560Z,101551.93
2019-03-27T11:28:48.125Z,101561.97
2019-03-27T11:31:45.916Z,101558.69
2019-03-27T11:34:43.797Z,101559.48
2019-03-27T11:37:41.387Z,101556.62
2019-03-27T11:40:38.948Z,101553.31
2019-03-27T11:43:36.917Z,101557.73
2019-03-27T11:46:33.578Z,101557.05
2019-03-27T11:49:33.115Z,101550.88
2019-03-27T11:52:30.606Z,101551.92
2019-03-27T11:55:28.093Z,101550.22
2019-03-27T11:58:24.772Z,101539.18
2019-03-27T12:01:21.530Z,101555.16
2019-03-27T12:04:19.409Z,101554.05
2019-03-27T12:07:16.942Z,101554.92
2019-03-27T12:10:13.738Z,101542.44
2019-03-27T12:13:12.116Z,101542.81
2019-03-27T12:16:08.847Z,101544.72
2019-03-27T12:19:07.507Z,101551.93
2019-03-27T12:22:05.455Z,101546.06
2019-03-27T12:25:02.115Z,101543.59
2019-03-27T12:27:59.837Z,101542.83
2019-03-27T12:30:58.665Z,101554.19
2019-03-27T12:33:56.045Z,101553.05
2019-03-27T12:36:53.023Z,101552.39
2019-03-27T12:39:50.395Z,101554.38
2019-03-27T12:42:47.133Z,101556.67
2019-03-27T12:45:44.720Z,101554.81
2019-03-27T12:48:41.346Z,101558.55
2019-03-27T12:51:39.298Z,101552.19
2019-03-27T12:54:37.104Z,101547.47
2019-03-27T12:57:34.710Z,101548.10
2019-03-27T13:00:32.994Z,101543.45
2019-03-27T13:03:29.919Z,101551.29
2019-03-27T13:06:27.672Z,101553.28
2019-03-27T13:09:26.340Z,101552.92
2019-03-27T13:12:22.925Z,101548.37
2019-03-27T13:15:20.542Z,101548.92
2019-03-27T13:18:18.474Z,101548.86
2019-03-27T13:21:25.624Z,101545.11
2019-03-27T13:24:14.691Z,101544.67
2019-03-27T13:27:12.350Z,101546.18
2019-03-27T13:30:10.811Z,101536.95
2019-03-27T13:33:08.872Z,101543.97
2019-03-27T13:36:05.446Z,101532.47
2019-03-27T13:39:02.723Z,101535.92
2019-03-27T13:42:01.205Z,101543.65
2019-03-27T13:44:58.930Z,101548.68
2019-03-27T13:47:56.679Z,101542.73
2019-03-27T13:50:54.003Z,101542.59
2019-03-27T13:53:55.842Z,101549.91
2019-03-27T13:56:53.772Z,101544.23
2019-03-27T13:59:51.347Z,101538.53
2019-03-27T14:02:49.373Z,101541.75
2019-03-27T14:05:46.820Z,101538.29
2019-03-27T14:08:46.545Z,101540.52
2019-03-27T14:11:44.183Z,101531.19
2019-03-27T14:14:50.364Z,101533.56
2019-03-27T14:17:39.985Z,101533.19
2019-03-27T14:20:36.420Z,101527.99
2019-03-27T14:23:35.501Z,101531.89
2019-03-27T14:26:44.430Z,101527.97
2019-03-27T14:29:31.650Z,101524.84
2019-03-27T14:32:29.739Z,101524.11
2019-03-27T14:35:32.761Z,101522.13
2019-03-27T14:38:30.688Z,101522.15
2019-03-27T14:41:31.173Z,101522.69
2019-03-27T14:44:29.180Z,101520.27
2019-03-27T14:47:26.619Z,101519.13
2019-03-27T14:50:24.280Z,101527.00
2019-03-27T14:53:21.589Z,101531.49
2019-03-27T14:56:18.410Z,101532.91
2019-03-27T14:59:15.762Z,101531.47
2019-03-27T15:02:13.497Z,101529.77
2019-03-27T15:05:11.933Z,101532.41
2019-03-27T15:08:09.409Z,101536.50
2019-03-27T15:11:07.120Z,101519.66
2019-03-27T15:14:03.987Z,101518.64
2019-03-27T15:17:02.390Z,101520.98
2019-03-27T15:19:59.706Z,101523.14
2019-03-27T15:22:57.350Z,101526.91
2019-03-27T15:25:54.099Z,101527.55
2019-03-27T15:28:51.325Z,101522.36
2019-03-27T15:31:49.990Z,101520.55
2019-03-27T15:34:47.045Z,101524.66
2019-03-27T15:37:44.205Z,101524.56
2019-03-27T15:40:46.949Z,101526.47
2019-03-27T15:43:44.350Z,101534.57
2019-03-27T15:46:40.990Z,101525.63
2019-03-27T15:49:38.800Z,101527.06
2019-03-27T15:52:37.205Z,101521.18
2019-03-27T15:55:34.302Z,101523.69
2019-03-27T15:58:31.041Z,101524.72
2019-03-27T16:01:28.791Z,101529.23
2019-03-27T16:04:26.476Z,101520.05
2019-03-27T16:07:22.941Z,101520.92
2019-03-27T16:10:19.541Z,101521.51
2019-03-27T16:13:16.372Z,101527.27
2019-03-27T16:16:14.351Z,101519.86
2019-03-27T16:19:13.250Z,101520.59
2019-03-27T16:22:10.216Z,101518.23
2019-03-27T16:25:07.112Z,101523.08
2019-03-27T16:28:05.584Z,101522.04
2019-03-27T16:31:03.812Z,101533.45
2019-03-27T16:34:01.292Z,101519.22
2019-03-27T16:36:59.234Z,101525.42
2019-03-27T16:39:56.387Z,101520.17
2019-03-27T16:42:53.790Z,101524.27
2019-03-27T16:45:52.804Z,101522.64
2019-03-27T16:48:57.711Z,101523.19
2019-03-27T16:51:56.395Z,101514.63
2019-03-27T16:54:55.083Z,101513.27
2019-03-27T16:57:52.373Z,101517.05
2019-03-27T17:00:49.998Z,101522.74
2019-03-27T17:03:47.544Z,101528.42
2019-03-27T17:06:45.726Z,101532.28
2019-03-27T17:09:48.789Z,101533.11
2019-03-27T17:12:44.919Z,101535.06
2019-03-27T17:15:42.452Z,101540.60
2019-03-27T17:18:38.984Z,101542.34
2019-03-27T17:21:35.531Z,101548.30
2019-03-27T17:24:32.940Z,101548.77
2019-03-27T17:27:30.222Z,101547.92
2019-03-27T17:30:28.337Z,101548.77
2019-03-27T17:33:24.941Z,101549.95
2019-03-27T17:36:22.224Z,101551.87
2019-03-27T17:39:19.137Z,101551.25
2019-03-27T17:42:16.931Z,101560.91
2019-03-27T17:45:15.422Z,101563.31
2019-03-27T17:48:13.224Z,101567.39
